Fingal, North Dakota
Current Conditions -  °F | °C
As of 9:35 AM on Friday 28 Nov 2014 (Local Time) from KBAC Reporting Station
Light Snow Light Snow  
Wind Chill: -6°   Ceiling: 600
Heat Index:   Visibility: 9mi
Dew Point:   Wind: 12mph
Humidity: 92%   Direction: 110°ESE
Pressure: 29.86"   Gusts: NA
Location:  46.76°N, 97.79°W
Report Text: KBAC 281535Z AUTO 11010KT 9SM -SN BKN006 OVC030 M13/M14 A2986 RMK AO2
Loading
Personal Weather Stations






























Interactive Weather Map New forecast layout! Learn more

10-Day Weather Forecast

Advertisements
Track Severe Weather on mobile